Time;durP1;ratioP1;P1;durP2;ratioP2;P2;SDS_P1;SDS_P2;PMS_P1;PMS_P2;Temp;Humidity;BMP_temperature;BMP_pressure;BME280_temperature;BME280_humidity;BME280_pressure;Samples;Min_cycle;Max_cycle;Signal;HPM_P1;HPM_P2
2023/10/01 00:01:53;;;;;;;15.75;7.75;;;;;;;-143.21;55.30;72212.97;6300463;22;20168;-80
2023/10/01 00:04:20;;;;;;;11.25;7.07;;;;;;;-143.21;55.67;72203.06;6300605;22;20210;-79
2023/10/01 00:06:47;;;;;;;17.57;7.07;;;;;;;-143.21;55.18;72197.13;6301328;22;20623;-79
2023/10/01 00:09:19;;;;;;;14.35;7.35;;;;;;;-143.21;55.18;72195.13;6301124;22;20218;-79
2023/10/01 00:11:46;;;;;;;13.70;7.13;;;;;;;-143.21;55.04;72197.13;6299313;22;20187;-79
2023/10/01 00:14:16;;;;;;;13.37;6.37;;;;;;;-143.21;54.69;72205.03;6299994;22;20510;-78
2023/10/01 00:16:43;;;;;;;10.50;6.60;;;;;;;-143.21;54.44;72203.06;6298957;22;20188;-78
2023/10/01 00:19:13;;;;;;;16.03;6.10;;;;;;;-143.21;55.00;72212.97;6301673;22;20153;-79
2023/10/01 00:21:42;;;;;;;11.70;7.00;;;;;;;-143.21;54.69;72209.00;6299807;22;20176;-79
2023/10/01 00:24:09;;;;;;;22.48;8.60;;;;;;;-143.21;55.40;72212.97;6299586;22;20511;-79
2023/10/01 00:26:37;;;;;;;21.33;8.90;;;;;;;-143.21;55.51;72216.94;6301035;22;20164;-81
2023/10/01 00:29:04;;;;;;;14.47;7.60;;;;;;;-143.21;56.00;72234.78;6301215;22;20195;-81
2023/10/01 00:31:32;;;;;;;19.17;8.50;;;;;;;-143.21;56.21;72234.78;6302493;22;20230;-81
2023/10/01 00:34:00;;;;;;;17.17;7.70;;;;;;;-143.21;56.65;72250.66;6299135;22;20230;-79
2023/10/01 00:36:28;;;;;;;12.37;7.60;;;;;;;-143.21;56.77;72236.78;6293733;22;21271;-81
2023/10/01 00:38:58;;;;;;;15.67;7.93;;;;;;;-143.21;56.46;72224.88;6289529;22;20204;-81
2023/10/01 00:41:25;;;;;;;19.87;8.07;;;;;;;-143.21;56.75;72238.75;6295818;22;20175;-80
2023/10/01 00:43:52;;;;;;;17.23;7.90;;;;;;;-143.21;56.18;72242.72;6301838;22;20198;-80
2023/10/01 00:46:19;;;;;;;18.53;8.37;;;;;;;-143.21;56.56;72240.75;6302718;22;20168;-81
2023/10/01 00:48:48;;;;;;;14.77;7.67;;;;;;;-143.21;56.58;72248.66;6303745;22;20164;-83
2023/10/01 00:51:16;;;;;;;21.07;7.83;;;;;;;-143.21;56.95;72258.59;6303213;22;20168;-82
2023/10/01 00:53:43;;;;;;;14.23;7.60;;;;;;;-143.21;57.00;72268.50;6304305;22;20175;-83
2023/10/01 00:56:11;;;;;;;21.03;8.27;;;;;;;-143.21;57.32;72272.47;6304289;22;20195;-83
2023/10/01 00:58:38;;;;;;;12.80;7.80;;;;;;;-143.21;57.56;72274.47;6303675;22;20171;-83
2023/10/01 01:01:07;;;;;;;16.30;7.53;;;;;;;-143.21;57.77;72282.38;6303997;22;20175;-83
2023/10/01 01:03:34;;;;;;;16.77;7.60;;;;;;;-143.21;57.76;72278.41;6307600;22;20230;-82
2023/10/01 01:06:17;;;;;;;14.50;7.77;;;;;;;-143.21;58.11;72286.34;6307285;22;20176;-83
2023/10/01 01:08:47;;;;;;;14.03;6.83;;;;;;;-143.21;58.15;72288.34;6303688;22;20167;-83
2023/10/01 01:11:16;;;;;;;15.23;7.73;;;;;;;-143.21;58.24;72286.34;6304049;22;20160;-82
2023/10/01 01:13:44;;;;;;;14.73;7.00;;;;;;;-143.21;57.95;72272.47;6303723;22;20168;-82
2023/10/01 01:16:12;;;;;;;23.17;8.17;;;;;;;-143.21;57.94;72280.41;6305740;22;20226;-84
2023/10/01 01:18:41;;;;;;;17.23;7.50;;;;;;;-143.21;58.17;72294.28;6303515;22;20196;-83
2023/10/01 01:21:11;;;;;;;13.70;7.37;;;;;;;-143.21;58.56;72304.19;6303960;22;20165;-83
2023/10/01 01:23:41;;;;;;;18.93;6.90;;;;;;;-143.21;58.79;72322.06;6303905;22;20191;-82
2023/10/01 01:26:10;;;;;;;12.03;6.57;;;;;;;-143.21;59.02;72318.09;6304672;22;20153;-80
2023/10/01 01:28:37;;;;;;;12.00;6.70;;;;;;;-143.21;59.19;72322.06;6304270;22;20172;-80
2023/10/01 01:31:05;;;;;;;10.40;6.93;;;;;;;-143.21;59.16;72324.03;6303940;22;20920;-80
2023/10/01 01:33:40;;;;;;;10.00;6.20;;;;;;;-143.21;58.71;72326.00;6303946;22;20168;-81
2023/10/01 01:36:09;;;;;;;10.40;6.60;;;;;;;-143.21;58.49;72316.09;6302345;22;20740;-81
2023/10/01 01:38:37;;;;;;;10.70;6.40;;;;;;;-143.21;58.83;72324.03;6301978;22;20174;-81
2023/10/01 01:41:06;;;;;;;13.93;6.90;;;;;;;-143.21;58.93;72326.00;6302461;22;20213;-80
2023/10/01 01:43:38;;;;;;;14.00;6.37;;;;;;;-143.21;58.95;72331.97;6300924;22;20891;-81
2023/10/01 01:46:08;;;;;;;9.13;6.43;;;;;;;-143.21;58.93;72331.97;6301884;22;20235;-80
2023/10/01 01:48:40;;;;;;;9.03;6.73;;;;;;;-143.21;58.48;72328.00;6301722;22;20211;-81
2023/10/01 01:51:08;;;;;;;12.43;6.57;;;;;;;-143.21;58.73;72335.94;6304411;22;20228;-81
2023/10/01 01:53:36;;;;;;;8.70;6.17;;;;;;;-143.21;58.93;72337.91;6302731;22;20514;-81
2023/10/01 01:56:08;;;;;;;12.70;6.70;;;;;;;-143.21;58.70;72331.97;6301208;22;20203;-80
2023/10/01 01:58:35;;;;;;;12.63;6.60;;;;;;;-143.21;59.29;72341.88;6302100;22;20167;-81
2023/10/01 02:01:08;;;;;;;9.97;6.57;;;;;;;-143.21;59.26;72345.84;6302046;22;20169;-81
2023/10/01 02:03:37;;;;;;;11.50;6.87;;;;;;;-143.21;59.66;72345.84;6303547;22;20218;-82
2023/10/01 02:06:07;;;;;;;15.67;7.07;;;;;;;-143.21;59.69;72343.88;6301188;22;20174;-79
2023/10/01 02:08:49;;;;;;;12.97;7.10;;;;;;;-143.21;59.82;72353.78;6301389;22;20172;-81
2023/10/01 02:11:19;;;;;;;13.07;7.77;;;;;;;-143.21;60.14;72357.75;6300996;22;20484;-81
2023/10/01 02:13:46;;;;;;;14.50;8.33;;;;;;;-143.21;60.02;72355.75;6301139;22;20207;-79
2023/10/01 02:16:35;;;;;;;14.27;8.20;;;;;;;-143.21;59.66;72349.81;6303235;22;20207;-79
2023/10/01 02:19:23;;;;;;;14.07;8.30;;;;;;;-143.21;59.83;72347.84;6301498;22;20243;-81
2023/10/01 02:21:52;;;;;;;17.00;8.50;;;;;;;-143.21;60.09;72363.69;6302107;22;20153;-81
2023/10/01 02:24:22;;;;;;;15.90;8.87;;;;;;;-143.21;60.34;72361.72;6301464;22;20255;-80
2023/10/01 02:26:58;;;;;;;14.77;8.60;;;;;;;-143.21;60.08;72361.72;6301278;22;20168;-81
2023/10/01 02:29:31;;;;;;;18.60;8.60;;;;;;;-143.21;60.37;72361.72;6302644;22;20152;-81
2023/10/01 02:31:57;;;;;;;17.67;8.57;;;;;;;-143.21;60.15;72367.66;6303094;22;21013;-80
2023/10/01 02:34:29;;;;;;;14.93;8.50;;;;;;;-143.21;59.95;72361.72;6301365;22;20164;-81
2023/10/01 02:37:03;;;;;;;13.97;8.67;;;;;;;-143.21;60.24;72361.72;6301170;22;20179;-81
2023/10/01 02:39:30;;;;;;;18.87;8.67;;;;;;;-143.21;60.52;72373.63;6301222;22;20231;-80
2023/10/01 02:42:09;;;;;;;12.50;8.00;;;;;;;-143.21;60.89;72373.63;6302786;22;20173;-79
2023/10/01 02:44:39;;;;;;;15.10;8.70;;;;;;;-143.21;60.77;72383.53;6303564;22;20156;-80
2023/10/01 02:47:16;;;;;;;16.43;8.43;;;;;;;-143.21;60.06;72379.56;6302052;22;20648;-80
2023/10/01 02:49:48;;;;;;;15.93;8.83;;;;;;;-143.21;60.08;72379.56;6300940;22;20607;-80
2023/10/01 02:52:15;;;;;;;13.03;8.60;;;;;;;-143.21;60.49;72379.56;6301997;22;20229;-80
2023/10/01 02:54:41;;;;;;;15.93;8.80;;;;;;;-143.21;60.50;72389.47;6302572;22;20518;-80
2023/10/01 02:57:23;;;;;;;13.43;9.07;;;;;;;-143.21;60.88;72391.47;6302675;22;20234;-80
2023/10/01 03:02:33;;;;;;;15.73;9.17;;;;;;;-143.21;61.16;72395.44;6299591;22;20653;-80
2023/10/01 03:05:06;;;;;;;18.13;9.70;;;;;;;-143.21;61.47;72403.34;6300139;22;20559;-79
2023/10/01 03:07:38;;;;;;;15.07;8.30;;;;;;;-143.21;60.57;72385.50;6300391;22;20298;-79
2023/10/01 03:10:14;;;;;;;17.40;8.10;;;;;;;-143.21;59.86;72385.50;6302137;22;20172;-81
2023/10/01 03:12:49;;;;;;;11.43;8.13;;;;;;;-143.21;59.75;72381.53;6300756;22;20610;-81
2023/10/01 03:15:27;;;;;;;12.67;8.03;;;;;;;-143.21;60.10;72399.41;6301510;22;20152;-82
2023/10/01 03:17:57;;;;;;;11.43;8.07;;;;;;;-143.21;60.44;72407.31;6300001;22;20682;-79
2023/10/01 03:23:13;;;;;;;17.67;7.40;;;;;;;-143.21;60.02;72405.34;6301553;22;20187;-78
2023/10/01 03:25:42;;;;;;;14.17;7.67;;;;;;;-143.21;60.06;72411.28;6302114;22;20148;-80
2023/10/01 03:28:25;;;;;;;17.03;7.57;;;;;;;-143.21;60.17;72411.28;6301005;22;20251;-80
2023/10/01 03:31:01;;;;;;;12.60;6.90;;;;;;;-143.21;60.42;72409.31;6300766;22;20600;-80
2023/10/01 03:33:30;;;;;;;12.87;7.63;;;;;;;-143.21;60.42;72415.25;6300237;22;20156;-79
2023/10/01 03:35:57;;;;;;;12.83;7.77;;;;;;;-143.21;60.26;72409.31;6300900;22;20722;-82
2023/10/01 03:38:25;;;;;;;10.80;7.60;;;;;;;-143.21;60.27;72415.25;6301766;22;20176;-80
2023/10/01 03:41:02;;;;;;;14.53;7.00;;;;;;;-143.21;60.02;72421.22;6300773;22;20520;-79
2023/10/01 03:43:35;;;;;;;16.47;7.53;;;;;;;-143.21;59.84;72423.19;6300341;22;20188;-79
2023/10/01 03:46:13;;;;;;;15.40;7.83;;;;;;;-143.21;60.52;72439.06;6300523;22;20160;-80
2023/10/01 03:48:59;;;;;;;15.10;7.63;;;;;;;-143.21;60.24;72437.06;6300160;22;20167;-78
2023/10/01 03:51:52;;;;;;;13.50;7.17;;;;;;;-143.21;59.88;72435.09;6301951;22;20163;-79
2023/10/01 03:54:17;;;;;;;13.63;7.97;;;;;;;-143.21;60.29;72439.06;6300960;22;20168;-79
2023/10/01 03:56:55;;;;;;;14.27;7.83;;;;;;;-143.21;60.30;72443.03;6300096;22;20196;-79
2023/10/01 03:59:24;;;;;;;14.90;7.57;;;;;;;-143.21;60.39;72447.00;6300681;22;20502;-80
2023/10/01 04:02:00;;;;;;;15.17;7.80;;;;;;;-143.21;60.66;72456.91;6300400;22;20222;-80
2023/10/01 04:04:29;;;;;;;11.37;7.50;;;;;;;-143.21;60.65;72462.84;6301677;22;20580;-79
2023/10/01 04:06:59;;;;;;;18.37;8.60;;;;;;;-143.21;60.97;72474.75;6301819;22;20251;-79
2023/10/01 04:09:27;;;;;;;14.07;8.00;;;;;;;-143.21;61.44;72474.75;6299880;22;20191;-83
2023/10/01 04:12:18;;;;;;;19.17;8.57;;;;;;;-143.21;61.63;72478.72;6302157;22;20172;-82
2023/10/01 04:14:48;;;;;;;14.23;8.50;;;;;;;-143.21;61.56;72472.78;6303118;22;20191;-80
2023/10/01 04:17:17;;;;;;;18.43;8.57;;;;;;;-143.21;61.50;72482.69;6302802;22;20203;-81
2023/10/01 04:19:48;;;;;;;15.63;7.77;;;;;;;-143.21;61.24;72486.66;6304296;22;20164;-81
2023/10/01 04:22:17;;;;;;;21.27;8.30;;;;;;;-143.21;61.32;72484.66;6302864;22;20231;-81
2023/10/01 04:24:44;;;;;;;14.97;7.73;;;;;;;-143.21;61.43;72488.63;6302697;22;20172;-81
2023/10/01 04:27:23;;;;;;;15.33;7.97;;;;;;;-143.21;61.21;72482.69;6303616;22;20505;-81
2023/10/01 04:29:57;;;;;;;13.27;7.67;;;;;;;-143.21;61.23;72480.72;6303258;22;20562;-80
2023/10/01 04:32:27;;;;;;;13.20;7.93;;;;;;;-143.21;60.68;72476.75;6304582;22;20160;-80
2023/10/01 04:34:56;;;;;;;17.07;7.80;;;;;;;-143.21;61.41;72480.72;6302064;22;20187;-80
2023/10/01 04:37:36;;;;;;;13.80;8.50;;;;;;;-143.21;60.66;72478.72;6301525;22;20587;-80
2023/10/01 04:40:31;;;;;;;17.03;8.67;;;;;;;-143.21;61.21;72488.63;6302204;22;20927;-80
2023/10/01 04:42:56;;;;;;;18.80;9.10;;;;;;;-143.21;61.48;72480.72;6301842;22;20255;-80
2023/10/01 04:45:25;;;;;;;15.33;8.63;;;;;;;-143.21;61.63;72486.66;6302822;22;20164;-80
2023/10/01 04:47:55;;;;;;;20.83;8.23;;;;;;;-143.21;61.28;72490.63;6302756;22;20164;-80
2023/10/01 04:50:27;;;;;;;15.93;7.60;;;;;;;-143.21;61.14;72486.66;6302502;22;20198;-80
2023/10/01 04:52:58;;;;;;;10.80;7.13;;;;;;;-143.21;60.83;72480.72;6301463;22;20465;-80
2023/10/01 04:55:26;;;;;;;16.60;7.70;;;;;;;-143.21;60.89;72472.78;6302181;22;21067;-80
2023/10/01 04:57:53;;;;;;;18.00;8.10;;;;;;;-143.21;60.75;72462.84;6304851;22;20291;-80
2023/10/01 05:00:22;;;;;;;21.77;7.73;;;;;;;-143.21;60.50;72462.84;6302032;22;20170;-80
2023/10/01 05:02:51;;;;;;;17.03;8.10;;;;;;;-143.21;60.35;72447.00;6301957;22;20168;-80
2023/10/01 05:05:25;;;;;;;13.50;7.30;;;;;;;-143.21;60.44;72447.00;6302515;22;20164;-80
2023/10/01 05:07:56;;;;;;;14.67;7.50;;;;;;;-143.21;60.21;72435.09;6302025;22;20160;-80
2023/10/01 05:10:23;;;;;;;14.97;7.63;;;;;;;-143.21;60.11;72435.09;6304383;22;20211;-81
2023/10/01 05:12:55;;;;;;;16.03;7.60;;;;;;;-143.21;59.80;72427.16;6304269;22;20168;-80
2023/10/01 05:15:25;;;;;;;19.80;7.73;;;;;;;-143.21;60.15;72423.19;6305067;22;20157;-79
2023/10/01 05:17:55;;;;;;;13.67;8.37;;;;;;;-143.21;59.85;72419.22;6304765;22;20612;-81
2023/10/01 05:20:23;;;;;;;12.07;7.53;;;;;;;-143.21;59.80;72411.28;6303547;22;20231;-79
2023/10/01 05:22:54;;;;;;;15.37;7.53;;;;;;;-143.21;59.57;72415.25;6302344;22;20187;-80
2023/10/01 05:25:21;;;;;;;13.70;7.63;;;;;;;-143.21;59.78;72411.28;6300802;22;20164;-80
2023/10/01 05:27:53;;;;;;;15.73;8.23;;;;;;;-143.21;59.42;72413.28;6302783;22;20469;-81
2023/10/01 05:30:42;;;;;;;14.73;8.47;;;;;;;-143.21;59.35;72403.34;6303113;22;20156;-82
2023/10/01 05:33:12;;;;;;;16.40;8.00;;;;;;;-143.21;59.14;72407.31;6304059;22;20237;-82
2023/10/01 05:35:43;;;;;;;11.77;7.60;;;;;;;-143.21;59.00;72405.34;6306309;22;20174;-82
2023/10/01 05:38:10;;;;;;;13.07;7.97;;;;;;;-143.21;59.29;72401.38;6316698;22;20563;-81
2023/10/01 05:40:40;;;;;;;12.23;7.73;;;;;;;-143.21;58.73;72397.41;6303322;22;20206;-82
2023/10/01 05:43:14;;;;;;;12.70;7.70;;;;;;;-143.21;58.97;72391.47;6303488;22;20164;-80
2023/10/01 05:45:41;;;;;;;17.37;8.40;;;;;;;-143.21;58.18;72377.56;6304618;22;20596;-81
2023/10/01 05:48:11;;;;;;;13.57;7.73;;;;;;;-143.21;58.42;72391.47;6315669;22;20174;-80
2023/10/01 05:50:41;;;;;;;12.03;7.90;;;;;;;-143.21;58.86;72397.41;6305712;22;20161;-80
2023/10/01 05:53:09;;;;;;;13.63;8.40;;;;;;;-143.21;58.81;72395.44;6301918;22;20156;-80
2023/10/01 05:55:37;;;;;;;16.37;8.00;;;;;;;-143.21;58.74;72391.47;6301731;22;20172;-80
2023/10/01 05:58:13;;;;;;;16.27;8.23;;;;;;;-143.21;58.59;72383.53;6303040;22;20250;-79
2023/10/01 06:00:45;;;;;;;15.07;8.80;;;;;;;-143.21;58.74;72375.59;6302439;22;20162;-79
2023/10/01 06:03:15;;;;;;;17.00;8.67;;;;;;;-143.21;58.79;72381.53;6300667;22;20157;-79
2023/10/01 06:05:50;;;;;;;19.63;9.53;;;;;;;-143.21;59.05;72383.53;6300736;22;20168;-80
2023/10/01 06:08:24;;;;;;;19.00;9.20;;;;;;;-143.21;58.89;72387.50;6300574;22;20234;-80
2023/10/01 06:10:59;;;;;;;15.47;7.90;;;;;;;-143.21;59.19;72397.41;6299680;22;20221;-79
2023/10/01 06:13:29;;;;;;;15.23;8.23;;;;;;;-143.21;59.79;72393.44;6299257;22;20246;-80
2023/10/01 06:16:11;;;;;;;16.67;7.23;;;;;;;-143.21;59.89;72389.47;6299407;22;20173;-78
2023/10/01 06:18:42;;;;;;;15.67;8.53;;;;;;;-143.21;59.69;72371.63;6299285;22;20196;-79
2023/10/01 06:21:10;;;;;;;11.97;7.90;;;;;;;-143.21;59.68;72349.81;6300006;22;20164;-79
2023/10/01 06:23:49;;;;;;;18.70;9.37;;;;;;;-143.21;59.49;72326.00;6300317;22;20172;-81
2023/10/01 06:26:22;;;;;;;15.57;9.07;;;;;;;-143.21;59.55;72335.94;6300976;22;20630;-79
2023/10/01 06:28:49;;;;;;;13.80;8.73;;;;;;;-143.21;59.97;72326.00;6297890;22;20153;-79
2023/10/01 06:31:27;;;;;;;16.87;8.63;;;;;;;-143.21;59.90;72318.09;6299817;22;20183;-81
2023/10/01 06:33:57;;;;;;;13.37;9.30;;;;;;;-143.21;59.97;72328.00;6299775;22;20239;-79
2023/10/01 06:36:26;;;;;;;17.27;8.70;;;;;;;-143.21;60.18;72326.00;6300747;22;20168;-80
2023/10/01 06:38:54;;;;;;;13.43;8.90;;;;;;;-143.21;60.12;72308.16;6300578;22;20243;-80
2023/10/01 06:41:25;;;;;;;19.63;9.13;;;;;;;-143.21;60.36;72302.22;6299286;22;20165;-79
2023/10/01 06:43:55;;;;;;;14.17;8.67;;;;;;;-143.21;59.74;72276.44;6300419;22;20157;-79
2023/10/01 06:46:27;;;;;;;14.07;8.70;;;;;;;-143.21;59.35;72270.50;6316544;22;20175;-81
2023/10/01 06:48:58;;;;;;;19.60;8.93;;;;;;;-143.21;59.14;72266.53;6301678;22;20218;-80
2023/10/01 06:51:26;;;;;;;19.73;9.80;;;;;;;-143.21;59.25;72248.66;6300025;22;20209;-79
2023/10/01 06:53:59;;;;;;;19.30;9.73;;;;;;;-143.21;59.55;72260.56;6300145;22;20619;-81
2023/10/01 06:56:30;;;;;;;15.57;9.37;;;;;;;-143.21;59.73;72244.72;6311168;22;20212;-80
2023/10/01 06:59:13;;;;;;;21.40;10.40;;;;;;;-143.21;60.15;72236.78;6307955;22;20859;-81
2023/10/01 07:01:46;;;;;;;26.50;10.57;;;;;;;-143.21;60.09;72226.84;6300534;22;20585;-80
2023/10/01 07:04:17;;;;;;;21.73;10.38;;;;;;;-143.21;60.28;72224.88;6301172;22;20214;-81
2023/10/01 07:06:45;;;;;;;19.23;11.10;;;;;;;-143.21;60.25;72220.91;6299509;22;20225;-80
2023/10/01 07:09:27;;;;;;;19.50;11.03;;;;;;;-143.21;60.44;72212.97;6299535;22;20250;-81
2023/10/01 07:11:56;;;;;;;19.17;10.38;;;;;;;-143.21;60.36;72203.06;6299444;22;20156;-81
2023/10/01 07:14:31;;;;;;;21.75;11.55;;;;;;;-143.21;60.26;72201.09;6300287;22;20164;-81
2023/10/01 07:17:00;;;;;;;18.35;11.02;;;;;;;-143.21;60.31;72199.09;6301136;22;20670;-81
2023/10/01 07:19:29;;;;;;;24.77;11.60;;;;;;;-143.21;61.01;72209.00;6299238;22;20172;-81
2023/10/01 07:21:58;;;;;;;17.03;10.60;;;;;;;-143.21;61.16;72211.00;6299227;22;20168;-81
2023/10/01 07:24:27;;;;;;;17.65;11.10;;;;;;;-143.21;61.00;72185.22;6300064;22;20913;-82
2023/10/01 07:27:03;;;;;;;22.55;11.65;;;;;;;-143.21;60.73;72171.34;6300765;22;20164;-79
2023/10/01 07:29:34;;;;;;;15.67;10.90;;;;;;;-143.21;60.90;72169.34;6299885;22;20472;-80
2023/10/01 07:32:08;;;;;;;21.17;11.68;;;;;;;-143.21;60.99;72169.34;6297599;22;20167;-80
2023/10/01 07:34:39;;;;;;;25.48;11.77;;;;;;;-143.21;60.62;72155.47;6297764;22;20614;-80
2023/10/01 07:37:23;;;;;;;20.42;11.35;;;;;;;-143.21;60.44;72151.50;6300024;22;20186;-82
2023/10/01 07:39:53;;;;;;;25.23;11.95;;;;;;;-143.21;60.50;72133.66;6299796;22;20163;-80
2023/10/01 07:42:24;;;;;;;17.38;10.65;;;;;;;-143.21;60.26;72121.75;6300901;22;20168;-79
2023/10/01 07:44:52;;;;;;;18.98;11.15;;;;;;;-143.21;60.04;72119.78;6300652;22;20157;-81
2023/10/01 07:47:32;;;;;;;19.00;10.88;;;;;;;-143.21;60.31;72117.78;6301874;22;20160;-82
2023/10/01 07:50:03;;;;;;;20.42;11.68;;;;;;;-143.21;60.30;72101.94;6303054;22;20168;-80
2023/10/01 07:52:36;;;;;;;25.35;12.68;;;;;;;-143.21;59.65;72078.13;6306397;22;20159;-81
2023/10/01 07:57:51;;;;;;;16.35;12.00;;;;;;;-143.21;59.84;72064.25;6300414;22;20191;-80
2023/10/01 08:00:30;;;;;;;21.77;12.15;;;;;;;-143.21;59.46;72050.38;6300964;22;20251;-81
2023/10/01 08:05:41;;;;;;;20.73;12.95;;;;;;;-143.21;59.40;72068.22;6287771;22;20195;-81
2023/10/01 08:08:08;;;;;;;20.23;11.80;;;;;;;-143.21;59.34;72050.38;6303504;22;20171;-80
2023/10/01 08:10:37;;;;;;;19.77;11.70;;;;;;;-143.21;59.51;72042.44;6302190;22;20194;-80
2023/10/01 08:13:24;;;;;;;24.67;13.57;;;;;;;-143.21;59.30;72018.63;6301630;22;20171;-80
2023/10/01 08:15:57;;;;;;;20.77;12.35;;;;;;;-143.21;58.94;72004.75;6300518;22;20222;-80
2023/10/01 08:18:35;;;;;;;22.33;12.07;;;;;;;-143.21;58.79;71984.94;6300890;22;20191;-83
2023/10/01 08:23:49;;;;;;;21.80;12.88;;;;;;;-143.21;58.54;71945.28;6303335;22;20190;-83
2023/10/01 08:26:43;;;;;;;20.10;13.40;;;;;;;-143.21;58.30;71939.31;6303748;22;20171;-80
2023/10/01 08:29:15;;;;;;;27.13;15.13;;;;;;;-143.21;58.01;71943.28;6299865;22;20168;-84
2023/10/01 08:32:08;;;;;;;27.92;12.38;;;;;;;-143.21;57.88;71943.28;6304119;22;20611;-83
2023/10/01 08:37:22;;;;;;;22.73;12.35;;;;;;;-143.21;57.25;71895.69;6300755;22;20294;-82
2023/10/01 08:39:53;;;;;;;26.08;12.07;;;;;;;-143.21;56.88;71893.72;6304993;22;20152;-84
2023/10/01 08:42:28;;;;;;;18.88;11.55;;;;;;;-143.21;56.07;71862.00;6304491;22;20210;-84
2023/10/01 08:45:02;;;;;;;24.88;12.02;;;;;;;-143.21;55.66;71854.06;6303322;22;20499;-84
2023/10/01 08:47:34;;;;;;;27.17;12.23;;;;;;;-143.21;55.97;71820.34;6304130;22;20165;-86
2023/10/01 08:50:19;;;;;;;21.05;10.80;;;;;;;-143.21;57.00;71786.63;6303513;22;20218;-82
2023/10/01 08:52:57;;;;;;;21.60;11.40;;;;;;;-143.21;55.42;71756.91;6303544;22;20192;-83
2023/10/01 08:55:27;;;;;;;18.85;10.57;;;;;;;-143.21;53.62;71764.81;6301913;22;20164;-83
2023/10/01 08:57:54;;;;;;;46.70;12.55;;;;;;;-143.21;53.22;71758.88;6301404;22;20245;-84
2023/10/01 09:00:24;;;;;;;33.35;12.18;;;;;;;-143.21;53.62;71766.81;6303820;22;20164;-84
2023/10/01 09:03:10;;;;;;;41.33;13.15;;;;;;;-143.21;53.22;71748.97;6315205;22;20191;-84
2023/10/01 09:05:46;;;;;;;38.15;12.48;;;;;;;-143.21;52.44;71725.16;6305415;22;20183;-84
2023/10/01 09:08:30;;;;;;;19.20;10.27;;;;;;;-143.21;51.67;71701.38;6305815;22;20148;-86
2023/10/01 09:10:59;;;;;;;19.95;10.43;;;;;;;-143.21;50.97;71669.66;6305993;22;20542;-86
2023/10/01 09:16:42;;;;;;;17.80;10.73;;;;;;;-143.21;49.91;71622.06;6297096;22;20168;-85
2023/10/01 09:19:50;;;;;;;18.15;10.20;;;;;;;-143.21;48.08;71614.13;6303801;22;20176;-86
2023/10/01 09:22:22;;;;;;;17.77;10.43;;;;;;;-143.21;47.87;71616.13;6302613;22;20179;-85
2023/10/01 09:24:56;;;;;;;18.73;10.57;;;;;;;-143.21;47.82;71588.38;6302727;22;20164;-86
2023/10/01 09:27:28;;;;;;;20.60;11.43;;;;;;;-143.21;47.67;71582.41;6302526;22;20172;-84
2023/10/01 09:30:26;;;;;;;24.13;12.70;;;;;;;-143.21;46.99;71562.59;6303641;22;20214;-84
2023/10/01 09:32:59;;;;;;;23.50;12.48;;;;;;;-143.21;46.81;71528.88;6302613;22;20222;-85
2023/10/01 09:35:41;;;;;;;28.52;13.77;;;;;;;-143.21;46.48;71511.03;6303573;22;20152;-84
2023/10/01 09:38:18;;;;;;;27.23;14.07;;;;;;;-143.21;46.30;71511.03;6304362;22;20187;-85
2023/10/01 09:40:51;;;;;;;31.48;13.60;;;;;;;-143.21;45.98;71509.06;6304033;22;20217;-88
2023/10/01 09:43:19;;;;;;;20.95;12.93;;;;;;;-143.21;45.11;71459.47;6305203;22;20159;-85
2023/10/01 09:45:47;;;;;;;21.42;12.50;;;;;;;-143.21;44.58;71447.59;6304768;22;20168;-85
2023/10/01 09:51:13;;;;;;;29.27;13.90;;;;;;;-143.21;43.72;71380.19;6299967;22;20164;-83
2023/10/01 09:53:45;;;;;;;21.77;12.32;;;;;;;-143.21;41.95;71346.47;6303812;22;20167;-84
2023/10/01 09:56:15;;;;;;;16.60;11.30;;;;;;;-143.21;41.36;71330.63;6304705;22;20675;-88
2023/10/01 09:58:46;;;;;;;21.60;10.90;;;;;;;-143.21;42.96;71332.59;6305832;22;20250;-88
2023/10/01 10:01:18;;;;;;;22.77;11.20;;;;;;;-143.21;40.24;71296.91;6304763;22;20153;-85
2023/10/01 10:03:54;;;;;;;20.35;10.32;;;;;;;-143.21;40.35;71271.13;6304187;22;20185;-86
2023/10/01 10:06:29;;;;;;;12.52;8.57;;;;;;;-143.21;39.19;71302.84;6304127;22;20163;-87
2023/10/01 10:09:04;;;;;;;16.20;9.52;;;;;;;-143.21;39.51;71300.88;6307032;22;20171;-87
2023/10/01 10:11:36;;;;;;;17.05;9.27;;;;;;;-143.21;39.85;71253.28;6316220;22;20583;-86
2023/10/01 10:14:29;;;;;;;20.70;9.55;;;;;;;-143.21;38.67;71225.53;6306716;22;20164;-85
2023/10/01 10:16:57;;;;;;;16.50;9.10;;;;;;;-143.21;38.71;71189.84;6303727;22;20227;-86
2023/10/01 10:23:13;;;;;;;15.23;9.27;;;;;;;-143.21;37.42;71148.22;6304141;22;20561;-87
2023/10/01 10:25:44;;;;;;;17.98;9.60;;;;;;;-143.21;37.48;71126.41;6302355;22;20188;-87
2023/10/01 10:28:24;;;;;;;16.52;9.25;;;;;;;-143.21;37.43;71086.75;6303072;22;20221;-85
2023/10/01 10:31:32;;;;;;;17.63;10.27;;;;;;;-143.21;36.90;71059.00;6303254;22;20160;-86
2023/10/01 10:36:55;;;;;;;14.93;9.63;;;;;;;-143.21;35.80;70987.66;6302645;22;20226;-88
2023/10/01 10:40:26;;;;;;;17.60;10.50;;;;;;;-143.21;36.50;70973.78;6302544;22;20542;-88
2023/10/01 10:43:23;;;;;;;18.55;10.13;;;;;;;-143.21;36.05;70987.66;6295158;22;20558;-87
2023/10/01 10:45:59;;;;;;;14.60;9.82;;;;;;;-143.21;35.53;70926.19;6301661;22;20164;-87
2023/10/01 10:49:02;;;;;;;20.88;9.07;;;;;;;-143.21;35.17;70868.72;6301031;22;20171;-87
2023/10/01 10:51:55;;;;;;;16.83;8.48;;;;;;;-143.21;34.59;70787.44;6302063;22;20175;-86
2023/10/01 10:54:36;;;;;;;15.20;10.25;;;;;;;-143.21;33.85;70779.50;6302201;22;20603;-86
2023/10/01 10:57:04;;;;;;;20.38;11.35;;;;;;;-143.21;34.18;70846.91;6301774;22;20168;-86
2023/10/01 10:59:35;;;;;;;19.25;10.35;;;;;;;-143.21;34.99;70938.09;6302164;22;20249;-89
2023/10/01 11:02:04;;;;;;;19.15;11.20;;;;;;;-143.21;35.92;71009.44;6303660;22;20172;-88
2023/10/01 11:04:41;;;;;;;15.55;10.63;;;;;;;-143.21;37.26;71112.53;6302709;22;20168;-89
2023/10/01 11:07:13;;;;;;;18.17;10.50;;;;;;;-143.21;38.52;71221.56;6303460;22;20156;-87
2023/10/01 11:09:39;;;;;;;15.45;10.85;;;;;;;-143.21;39.89;71288.97;6301858;22;20170;-87
2023/10/01 11:12:19;;;;;;;16.92;9.75;;;;;;;-143.21;41.45;71273.13;6302350;22;20175;-86
2023/10/01 11:14:55;;;;;;;15.02;9.77;;;;;;;-143.21;40.25;71249.34;6304687;22;20514;-87
2023/10/01 11:17:24;;;;;;;13.85;9.75;;;;;;;-143.21;40.16;71241.41;6313078;22;20184;-85
2023/10/01 11:19:58;;;;;;;18.77;10.30;;;;;;;-143.21;40.36;71269.16;6319585;22;20583;-85
2023/10/01 11:22:25;;;;;;;19.58;10.20;;;;;;;-143.21;40.07;71261.22;6301126;22;20160;-86
2023/10/01 11:24:54;;;;;;;16.00;9.80;;;;;;;-143.21;40.34;71273.13;6303458;22;20638;-86
2023/10/01 11:27:25;;;;;;;16.88;10.07;;;;;;;-143.21;40.83;71294.94;6306450;22;20168;-86
2023/10/01 11:30:15;;;;;;;17.83;9.93;;;;;;;-143.21;41.34;71328.63;6319319;22;20152;-85
2023/10/01 11:33:01;;;;;;;21.08;10.32;;;;;;;-143.21;41.47;71332.59;6302534;22;20152;-85
2023/10/01 11:35:34;;;;;;;15.57;9.98;;;;;;;-143.21;42.14;71356.38;6302239;22;20235;-86
2023/10/01 11:38:07;;;;;;;14.75;9.63;;;;;;;-143.21;42.69;71374.22;6302754;22;20172;-86
2023/10/01 11:43:23;;;;;;;18.40;9.85;;;;;;;-143.21;43.47;71419.84;6301910;22;20195;-75
2023/10/01 11:46:19;;;;;;;32.42;10.25;;;;;;;-143.21;43.74;71413.88;6301065;22;20152;-81
2023/10/01 11:48:57;;;;;;;17.90;10.55;;;;;;;-143.21;43.78;71407.94;6299909;22;20152;-85
2023/10/01 11:51:45;;;;;;;18.27;10.13;;;;;;;-143.21;44.01;71417.84;6301611;22;20183;-86
2023/10/01 11:54:13;;;;;;;15.77;9.00;;;;;;;-143.21;43.71;71415.88;6301695;22;20160;-83
2023/10/01 11:56:46;;;;;;;18.38;10.43;;;;;;;-143.21;43.01;71366.31;6303235;22;20234;-86
2023/10/01 11:59:22;;;;;;;16.98;9.57;;;;;;;-143.21;42.46;71340.53;6304163;22;20195;-88
2023/10/01 12:01:53;;;;;;;28.13;9.55;;;;;;;-143.21;42.56;71344.50;6303015;22;20191;-73
2023/10/01 12:07:17;;;;;;;16.33;9.60;;;;;;;-143.21;43.38;71374.22;6301842;22;20240;-84
2023/10/01 12:09:52;;;;;;;19.52;10.07;;;;;;;-143.21;44.09;71419.84;6301528;22;20525;-84